Terminal Aerodrome Forecast
Issued by NWS

Home | Current Version | Previous Version | Text Only | Print | Product List | Glossary On
Versions: 1 2 3 4 5 6 7 8 9 10 11 12 13 14
000
FTUS43 KJKL 131700
TAFSME
TAF
KSME 131721Z 1318/1418 25010G18KT P6SM SCT050 SCT100
     FM140100 VRB04KT P6SM SCT050 BKN100
     FM141200 VRB05KT P6SM VCTS BKN040CB BKN070
     FM141600 24010KT 5SM -TSRA OVC040CB=

USA.gov is the U.S. government's official web portal to all federal, state and local government web resources and services.